createdAt,value
2024-01-16T00:00:53.720Z,90.1
2024-01-16T00:01:53.679Z,90.1
2024-01-16T00:02:53.711Z,90.1
2024-01-16T00:03:53.726Z,90.1
2024-01-16T00:04:54.688Z,90.1
2024-01-16T00:05:53.708Z,90.1
2024-01-16T00:06:53.691Z,90.1
2024-01-16T00:07:53.672Z,90.1
2024-01-16T00:08:53.669Z,90.1
2024-01-16T00:09:53.684Z,90.1
2024-01-16T00:10:53.672Z,90.1
2024-01-16T00:11:53.791Z,90.5
2024-01-16T00:12:53.667Z,90.5
2024-01-16T00:13:53.680Z,90.5
2024-01-16T00:14:53.667Z,90.5
2024-01-16T00:15:53.651Z,90.5
2024-01-16T00:16:53.707Z,90.5
2024-01-16T00:17:53.748Z,90.5
2024-01-16T00:18:53.770Z,90.5
2024-01-16T00:19:53.648Z,90.5
2024-01-16T00:20:53.745Z,90.5
2024-01-16T00:21:53.661Z,90.5
2024-01-16T00:22:53.657Z,90.5
2024-01-16T00:23:53.774Z,90.5
2024-01-16T00:24:53.667Z,90.5
2024-01-16T00:25:53.679Z,90.5
2024-01-16T00:26:53.649Z,90.5
2024-01-16T00:27:53.686Z,90.5
2024-01-16T00:28:53.664Z,90.5
2024-01-16T00:29:53.681Z,90.5
2024-01-16T00:30:53.686Z,90.5
2024-01-16T00:31:53.707Z,90.5
2024-01-16T00:32:53.768Z,90.3
2024-01-16T00:33:53.771Z,90.3
2024-01-16T00:34:53.654Z,90.3
2024-01-16T00:35:53.759Z,90.6
2024-01-16T00:36:53.677Z,90.6
2024-01-16T00:37:53.680Z,90.6
2024-01-16T00:38:53.652Z,90.6
2024-01-16T00:39:53.727Z,90.6
2024-01-16T00:40:53.691Z,90.6
2024-01-16T00:41:53.691Z,90.6
2024-01-16T00:42:53.660Z,90.6
2024-01-16T00:43:53.663Z,90.6
2024-01-16T00:44:53.709Z,90.6
2024-01-16T00:45:53.675Z,90.6
2024-01-16T00:46:53.694Z,90.6
2024-01-16T00:47:53.812Z,90.6
2024-01-16T00:48:53.801Z,90.6
2024-01-16T00:49:53.671Z,89.5
2024-01-16T00:50:53.683Z,89.5
2024-01-16T00:51:53.655Z,89.5
2024-01-16T00:52:53.657Z,89.5
2024-01-16T00:53:53.725Z,89.5
2024-01-16T00:54:53.673Z,89.5
2024-01-16T00:55:53.681Z,89.5
2024-01-16T00:56:53.675Z,89.5
2024-01-16T00:57:53.659Z,89.5
2024-01-16T00:58:53.683Z,89.5
2024-01-16T00:59:53.765Z,89.5
2024-01-16T01:00:53.687Z,89.5
2024-01-16T01:01:53.694Z,89.5
2024-01-16T01:02:53.694Z,89.3
2024-01-16T01:03:53.739Z,89.3
2024-01-16T01:04:53.688Z,89.3
2024-01-16T01:05:53.738Z,89.3
2024-01-16T01:06:53.688Z,89.3
2024-01-16T01:07:53.685Z,89.3
2024-01-16T01:08:53.654Z,89.3
2024-01-16T01:09:53.656Z,89.3
2024-01-16T01:10:53.721Z,89.3
2024-01-16T01:11:53.652Z,89.3
2024-01-16T01:12:53.678Z,89.9
2024-01-16T01:13:53.697Z,89.9
2024-01-16T01:14:53.756Z,89.9
2024-01-16T01:15:53.827Z,90.1
2024-01-16T01:16:53.647Z,90.1
2024-01-16T01:17:53.742Z,90.1
2024-01-16T01:18:53.794Z,90.1
2024-01-16T01:19:53.666Z,90.1
2024-01-16T01:20:53.775Z,90.1
2024-01-16T01:21:53.684Z,90.1
2024-01-16T01:22:53.649Z,90.1
2024-01-16T01:23:53.701Z,90.1
2024-01-16T01:24:53.660Z,90.1
2024-01-16T01:25:53.669Z,90.1
2024-01-16T01:26:53.741Z,90.1
2024-01-16T01:27:53.680Z,90.1
2024-01-16T01:28:53.653Z,90.1
2024-01-16T01:29:53.716Z,90.1
2024-01-16T01:30:53.823Z,90.1
2024-01-16T01:31:53.656Z,90.1
2024-01-16T01:32:53.841Z,90.1
2024-01-16T01:33:53.796Z,90.1
2024-01-16T01:34:53.664Z,90.1
2024-01-16T01:35:53.711Z,90.2
2024-01-16T01:36:53.693Z,90.2
2024-01-16T01:37:53.674Z,90.2
2024-01-16T01:38:53.741Z,90.2
2024-01-16T01:39:53.682Z,90.2
2024-01-16T01:40:53.717Z,90.2
2024-01-16T01:41:53.738Z,90.2
2024-01-16T01:42:53.652Z,90.2
2024-01-16T01:43:53.646Z,90.2
2024-01-16T01:44:53.745Z,90.2
2024-01-16T01:45:53.654Z,89.7
2024-01-16T01:46:53.677Z,89.7
2024-01-16T01:47:53.750Z,89.7
2024-01-16T01:48:53.745Z,89.7
2024-01-16T01:49:53.713Z,89.7
2024-01-16T01:50:53.693Z,89.7
2024-01-16T01:51:53.662Z,89.7
2024-01-16T01:52:53.636Z,89.7
2024-01-16T01:53:53.701Z,89.7
2024-01-16T01:54:53.667Z,89.7
2024-01-16T01:55:53.700Z,89.7
2024-01-16T01:56:53.734Z,89.7
2024-01-16T01:57:53.651Z,89.7
2024-01-16T01:58:53.664Z,89.7
2024-01-16T01:59:53.647Z,89.7
2024-01-16T02:00:53.719Z,89.7
2024-01-16T02:01:53.678Z,89.7
2024-01-16T02:02:53.740Z,89.7
2024-01-16T02:03:53.673Z,89.7
2024-01-16T02:04:53.656Z,89.7
2024-01-16T02:05:53.769Z,89.7
2024-01-16T02:06:53.688Z,89.7
2024-01-16T02:07:53.632Z,89.7
2024-01-16T02:08:53.653Z,89.7
2024-01-16T02:09:53.640Z,89.7
2024-01-16T02:10:53.640Z,89.7
2024-01-16T02:11:53.711Z,89.7
2024-01-16T02:12:53.656Z,89.7
2024-01-16T02:13:53.659Z,89.7
2024-01-16T02:14:53.639Z,89.7
2024-01-16T02:15:53.647Z,89.7
2024-01-16T02:16:53.665Z,89.7
2024-01-16T02:17:53.882Z,89.7
2024-01-16T02:18:53.806Z,89.7
2024-01-16T02:19:53.655Z,89.7
2024-01-16T02:20:53.724Z,89.7
2024-01-16T02:21:53.651Z,89.7
2024-01-16T02:22:53.642Z,89.8
2024-01-16T02:23:53.667Z,89.8
2024-01-16T02:24:53.635Z,89.8
2024-01-16T02:25:53.683Z,89.8
2024-01-16T02:26:53.711Z,89.8
2024-01-16T02:27:53.657Z,89.8
2024-01-16T02:28:53.641Z,89.8
2024-01-16T02:29:53.742Z,89.8
2024-01-16T02:30:53.766Z,89.8
2024-01-16T02:31:53.672Z,89.8
2024-01-16T02:32:53.742Z,89.8
2024-01-16T02:33:53.723Z,89.8
2024-01-16T02:34:53.641Z,89.8
2024-01-16T02:35:53.727Z,89.8
2024-01-16T02:36:53.654Z,89.8
2024-01-16T02:37:53.634Z,89.8
2024-01-16T02:38:53.705Z,89.8
2024-01-16T02:39:53.703Z,89.8
2024-01-16T02:40:53.666Z,89.8
2024-01-16T02:41:53.721Z,89.8
2024-01-16T02:42:53.634Z,89.8
2024-01-16T02:43:53.640Z,89.8
2024-01-16T02:44:53.671Z,89.8
2024-01-16T02:45:53.664Z,89.8
2024-01-16T02:46:53.637Z,89.8
2024-01-16T02:47:53.759Z,89.8
2024-01-16T02:48:53.670Z,89.8
2024-01-16T02:49:53.670Z,90.4
2024-01-16T02:50:53.719Z,90.4
2024-01-16T02:51:53.686Z,90.4
2024-01-16T02:52:53.684Z,90.4
2024-01-16T02:53:53.701Z,90.4
2024-01-16T02:54:53.661Z,90.4
2024-01-16T02:55:53.661Z,90.4
2024-01-16T02:56:53.741Z,90.4
2024-01-16T02:57:53.662Z,90.4
2024-01-16T02:58:53.650Z,90.4
2024-01-16T02:59:53.712Z,90.4
2024-01-16T03:00:53.732Z,90.4
2024-01-16T03:01:53.659Z,90.4
2024-01-16T03:02:53.751Z,90.4
2024-01-16T03:03:53.746Z,90.4
2024-01-16T03:04:53.660Z,90.4
2024-01-16T03:05:53.798Z,90.4
2024-01-16T03:06:53.747Z,90.4
2024-01-16T03:07:53.667Z,90.4
2024-01-16T03:08:53.888Z,90.4
2024-01-16T03:09:53.670Z,90.4
2024-01-16T03:10:53.674Z,90.4
2024-01-16T03:11:53.804Z,90.4
2024-01-16T03:12:53.692Z,90.4
2024-01-16T03:13:53.847Z,90.4
2024-01-16T03:14:53.677Z,90.4
2024-01-16T03:15:53.673Z,90.4
2024-01-16T03:16:53.719Z,90.4
2024-01-16T03:17:53.826Z,90.4
2024-01-16T03:18:53.728Z,90.4
2024-01-16T03:19:53.692Z,90.4
2024-01-16T03:20:53.810Z,89.8
2024-01-16T03:21:53.674Z,89.8
2024-01-16T03:22:53.689Z,89.8
2024-01-16T03:23:53.758Z,89.8
2024-01-16T03:24:53.688Z,89.8
2024-01-16T03:25:53.725Z,89.8
2024-01-16T03:26:53.693Z,89.8
2024-01-16T03:27:53.719Z,89.8
2024-01-16T03:28:53.684Z,90
2024-01-16T03:29:53.806Z,90
2024-01-16T03:30:53.809Z,90
2024-01-16T03:31:53.727Z,90
2024-01-16T03:32:53.732Z,90
2024-01-16T03:33:53.770Z,90
2024-01-16T03:34:53.705Z,90
2024-01-16T03:35:53.767Z,90
2024-01-16T03:36:53.703Z,90
2024-01-16T03:37:53.693Z,90
2024-01-16T03:38:53.763Z,90
2024-01-16T03:39:53.705Z,90
2024-01-16T03:40:53.872Z,90
2024-01-16T03:41:53.804Z,90
2024-01-16T03:42:53.713Z,90
2024-01-16T03:43:53.713Z,90
2024-01-16T03:44:53.752Z,90
2024-01-16T03:45:53.696Z,90
2024-01-16T03:46:53.724Z,90
2024-01-16T03:47:53.765Z,90
2024-01-16T03:48:53.731Z,90
2024-01-16T03:49:53.710Z,90
2024-01-16T03:50:53.732Z,90
2024-01-16T03:51:53.745Z,90.1
2024-01-16T03:52:53.697Z,90.1
2024-01-16T03:53:53.735Z,90.1
2024-01-16T03:54:53.692Z,90.1
2024-01-16T03:55:53.704Z,90.1
2024-01-16T03:56:53.735Z,90.1
2024-01-16T03:57:53.702Z,90.1
2024-01-16T03:58:53.723Z,90.1
2024-01-16T03:59:53.800Z,90.1
2024-01-16T04:00:53.757Z,90.1
2024-01-16T04:01:53.717Z,90.1
2024-01-16T04:02:53.856Z,90.1
2024-01-16T04:03:53.721Z,90.1
2024-01-16T04:04:53.765Z,90.1
2024-01-16T04:05:53.802Z,90.1
2024-01-16T04:06:53.712Z,90.1
2024-01-16T04:07:53.700Z,90.1
2024-01-16T04:08:53.808Z,90.1
2024-01-16T04:09:53.722Z,90.1
2024-01-16T04:10:53.736Z,90.1
2024-01-16T04:11:53.764Z,90.1
2024-01-16T04:12:53.700Z,90.1
2024-01-16T04:13:53.730Z,90.1
2024-01-16T04:14:53.722Z,90.1
2024-01-16T04:15:53.716Z,90.1
2024-01-16T04:16:53.741Z,90.1
2024-01-16T04:17:53.703Z,90.1
2024-01-16T04:18:53.787Z,90.1
2024-01-16T04:19:53.724Z,90.1
2024-01-16T04:20:53.814Z,90.1
2024-01-16T04:21:53.714Z,90
2024-01-16T04:22:53.730Z,90
2024-01-16T04:23:53.752Z,90
2024-01-16T04:24:53.743Z,90
2024-01-16T04:25:53.738Z,90
2024-01-16T04:26:53.826Z,90
2024-01-16T04:27:53.704Z,90
2024-01-16T04:28:53.725Z,90
2024-01-16T04:29:53.745Z,90
2024-01-16T04:30:53.817Z,90
2024-01-16T04:31:53.728Z,90
2024-01-16T04:32:53.894Z,90
2024-01-16T04:33:53.787Z,90
2024-01-16T04:34:53.740Z,89.6
2024-01-16T04:35:53.851Z,89.6
2024-01-16T04:36:53.776Z,89.6
2024-01-16T04:37:53.727Z,89.6
2024-01-16T04:38:53.800Z,89.6
2024-01-16T04:39:53.728Z,89.6
2024-01-16T04:40:53.733Z,89.6
2024-01-16T04:41:53.775Z,89.6
2024-01-16T04:42:53.884Z,89.6
2024-01-16T04:43:53.725Z,89.6
2024-01-16T04:44:53.795Z,89.6
2024-01-16T04:45:53.709Z,89.6
2024-01-16T04:46:53.779Z,89.6
2024-01-16T04:47:53.935Z,89.6
2024-01-16T04:48:53.882Z,89.6
2024-01-16T04:49:53.751Z,89.6
2024-01-16T04:50:53.792Z,89.6
2024-01-16T04:51:53.731Z,89.6
2024-01-16T04:52:54.609Z,89.6
2024-01-16T04:53:53.774Z,89.6
2024-01-16T04:54:53.768Z,89.6
2024-01-16T04:55:53.863Z,89.6
2024-01-16T04:56:53.796Z,89.6
2024-01-16T04:57:53.747Z,89.6
2024-01-16T04:58:53.748Z,89.6
2024-01-16T04:59:53.780Z,89.7
2024-01-16T05:00:53.736Z,89.7
2024-01-16T05:01:53.785Z,89.7
2024-01-16T05:02:53.840Z,89.7
2024-01-16T05:03:53.786Z,89.7
2024-01-16T05:04:53.760Z,89.7
2024-01-16T05:05:53.788Z,89.7
2024-01-16T05:06:53.727Z,89.7
2024-01-16T05:07:53.759Z,89.7
2024-01-16T05:08:53.859Z,89.7
2024-01-16T05:09:53.747Z,89.7
2024-01-16T05:10:53.802Z,89.7
2024-01-16T05:11:53.781Z,89.7
2024-01-16T05:12:53.746Z,89.7
2024-01-16T05:13:53.746Z,90.5
2024-01-16T05:14:53.794Z,90.5
2024-01-16T05:15:53.743Z,90.5
2024-01-16T05:16:53.757Z,90.5
2024-01-16T05:17:53.895Z,90.6
2024-01-16T05:18:53.827Z,90.6
2024-01-16T05:19:53.742Z,90.6
2024-01-16T05:20:53.857Z,90.6
2024-01-16T05:21:53.807Z,90.6
2024-01-16T05:22:53.735Z,90.6
2024-01-16T05:23:53.736Z,90.6
2024-01-16T05:24:53.751Z,90.6
2024-01-16T05:25:53.731Z,90.6
2024-01-16T05:26:53.761Z,90.5
2024-01-16T05:27:53.744Z,90.5
2024-01-16T05:28:53.746Z,90.5
2024-01-16T05:29:53.929Z,90.5
2024-01-16T05:30:53.829Z,90.5
2024-01-16T05:31:53.836Z,90.5
2024-01-16T05:32:53.859Z,90.5
2024-01-16T05:33:53.811Z,90.5
2024-01-16T05:34:53.745Z,90.5
2024-01-16T05:35:53.827Z,90.5
2024-01-16T05:36:53.752Z,90.5
2024-01-16T05:37:53.752Z,90.5
2024-01-16T05:38:53.767Z,90.5
2024-01-16T05:39:53.772Z,90.5
2024-01-16T05:40:53.803Z,90.5
2024-01-16T05:41:53.908Z,90.5
2024-01-16T05:42:53.756Z,90.5
2024-01-16T05:43:53.753Z,90.5
2024-01-16T05:44:53.794Z,90.5
2024-01-16T05:45:53.759Z,90.5
2024-01-16T05:46:53.789Z,90.5
2024-01-16T05:47:53.782Z,90.5
2024-01-16T05:48:53.912Z,90.5
2024-01-16T05:49:53.871Z,90.5
2024-01-16T05:50:53.794Z,90.5
2024-01-16T05:51:53.754Z,90.5
2024-01-16T05:52:53.763Z,90.5
2024-01-16T05:53:53.818Z,90.5
2024-01-16T05:54:53.780Z,89.4
2024-01-16T05:55:53.760Z,89.4
2024-01-16T05:56:53.808Z,89.4
2024-01-16T05:57:53.777Z,89.4
2024-01-16T05:58:53.745Z,89.4
2024-01-16T05:59:53.797Z,89.4
2024-01-16T06:00:53.817Z,89.4
2024-01-16T06:01:53.760Z,89.4
2024-01-16T06:02:53.820Z,89.4
2024-01-16T06:03:53.810Z,89.4
2024-01-16T06:04:53.787Z,89.4
2024-01-16T06:05:53.915Z,89.4
2024-01-16T06:06:53.993Z,89.4
2024-01-16T06:07:53.757Z,89.4
2024-01-16T06:08:53.796Z,89.4
2024-01-16T06:09:53.764Z,89.4
2024-01-16T06:10:53.749Z,89.2
2024-01-16T06:11:53.815Z,89.2
2024-01-16T06:12:53.777Z,89.2
2024-01-16T06:13:53.765Z,89.2
2024-01-16T06:14:53.840Z,89.1
2024-01-16T06:15:53.759Z,89.1
2024-01-16T06:16:53.774Z,89.1
2024-01-16T06:17:53.838Z,89.1
2024-01-16T06:18:53.810Z,89.1
2024-01-16T06:19:53.765Z,89.1
2024-01-16T06:20:53.948Z,89.1
2024-01-16T06:21:53.772Z,89.1
2024-01-16T06:22:53.794Z,89.1
2024-01-16T06:23:53.800Z,89.1
2024-01-16T06:24:53.754Z,89.1
2024-01-16T06:25:53.759Z,89.1
2024-01-16T06:26:53.850Z,89.1
2024-01-16T06:27:53.807Z,89.1
2024-01-16T06:28:53.771Z,89.1
2024-01-16T06:29:53.768Z,89.1
2024-01-16T06:30:53.833Z,88.6
2024-01-16T06:31:53.788Z,88.6
2024-01-16T06:32:53.948Z,88.6
2024-01-16T06:33:53.840Z,88.6
2024-01-16T06:34:53.776Z,88.6
2024-01-16T06:35:54.467Z,88.6
2024-01-16T06:36:53.777Z,88.6
2024-01-16T06:37:53.749Z,88.6
2024-01-16T06:38:53.845Z,88.6
2024-01-16T06:39:53.777Z,88.6
2024-01-16T06:40:53.776Z,88.2
2024-01-16T06:41:53.781Z,88.2
2024-01-16T06:42:53.792Z,88.2
2024-01-16T06:43:53.774Z,88.2
2024-01-16T06:44:53.873Z,88.2
2024-01-16T06:45:53.779Z,88.2
2024-01-16T06:46:53.881Z,88.2
2024-01-16T06:47:53.823Z,88.2
2024-01-16T06:48:53.880Z,88.2
2024-01-16T06:49:53.777Z,88.2
2024-01-16T06:50:53.862Z,88.2
2024-01-16T06:51:53.811Z,88.2
2024-01-16T06:52:53.783Z,88.2
2024-01-16T06:53:53.867Z,88.2
2024-01-16T06:54:53.791Z,88.2
2024-01-16T06:55:53.780Z,88.2
2024-01-16T06:56:53.827Z,88.2
2024-01-16T06:57:53.780Z,88.2
2024-01-16T06:58:53.792Z,88.2
2024-01-16T06:59:53.924Z,88
2024-01-16T07:00:53.991Z,88
2024-01-16T07:01:53.787Z,88
2024-01-16T07:02:53.856Z,88
2024-01-16T07:03:53.874Z,88
2024-01-16T07:04:53.835Z,88
2024-01-16T07:05:53.876Z,88
2024-01-16T07:06:53.808Z,88
2024-01-16T07:07:53.757Z,88
2024-01-16T07:08:53.837Z,88
2024-01-16T07:09:53.776Z,88
2024-01-16T07:10:53.800Z,88
2024-01-16T07:11:53.845Z,88
2024-01-16T07:12:53.787Z,88
2024-01-16T07:13:53.775Z,88
2024-01-16T07:14:53.927Z,88
2024-01-16T07:15:53.765Z,88
2024-01-16T07:16:53.761Z,88
2024-01-16T07:17:53.815Z,88
2024-01-16T07:18:53.823Z,88
2024-01-16T07:19:53.877Z,88
2024-01-16T07:20:53.833Z,88
2024-01-16T07:21:53.791Z,88
2024-01-16T07:22:53.787Z,88
2024-01-16T07:23:53.811Z,88
2024-01-16T07:24:53.781Z,88
2024-01-16T07:25:53.773Z,88
2024-01-16T07:26:53.900Z,88
2024-01-16T07:27:53.773Z,88
2024-01-16T07:28:53.777Z,88
2024-01-16T07:29:53.819Z,88
2024-01-16T07:30:53.872Z,88
2024-01-16T07:31:53.800Z,88
2024-01-16T07:32:53.871Z,88
2024-01-16T07:33:53.945Z,88
2024-01-16T07:34:53.768Z,88
2024-01-16T07:35:53.814Z,88
2024-01-16T07:36:53.788Z,88
2024-01-16T07:37:53.782Z,88
2024-01-16T07:38:53.794Z,87.5
2024-01-16T07:39:53.814Z,87.5
2024-01-16T07:40:53.818Z,87.5
2024-01-16T07:41:53.851Z,87.5
2024-01-16T07:42:53.761Z,87.5
2024-01-16T07:43:53.755Z,87.5
2024-01-16T07:44:53.892Z,87.5
2024-01-16T07:45:53.781Z,87.5
2024-01-16T07:46:53.782Z,87.5
2024-01-16T07:47:53.915Z,87.5
2024-01-16T07:48:53.888Z,87.5
2024-01-16T07:49:53.786Z,87.5
2024-01-16T07:50:53.827Z,87.5
2024-01-16T07:51:53.753Z,87.5
2024-01-16T07:52:53.805Z,87.5
2024-01-16T07:53:53.812Z,87.5
2024-01-16T07:54:53.768Z,86.7
2024-01-16T07:55:53.771Z,86.7
2024-01-16T07:56:53.860Z,86.7
2024-01-16T07:57:53.801Z,86.7
2024-01-16T07:58:53.740Z,86.7
2024-01-16T07:59:53.834Z,86.7
2024-01-16T08:00:53.795Z,86.7
2024-01-16T08:01:53.783Z,86.7
2024-01-16T08:02:53.846Z,86.7
2024-01-16T08:03:53.776Z,86.7
2024-01-16T08:04:53.772Z,86.7
2024-01-16T08:05:53.972Z,86.7
2024-01-16T08:06:53.982Z,86.7
2024-01-16T08:07:53.769Z,86.7
2024-01-16T08:08:53.901Z,86.7
2024-01-16T08:09:53.769Z,86.7
2024-01-16T08:10:53.799Z,86.7
2024-01-16T08:11:53.798Z,85.5
2024-01-16T08:12:53.768Z,85.5
2024-01-16T08:13:53.771Z,85.5
2024-01-16T08:14:53.835Z,84.8
2024-01-16T08:15:53.785Z,84.8
2024-01-16T08:16:53.816Z,84.8
2024-01-16T08:17:53.909Z,84.8
2024-01-16T08:18:53.892Z,84.8
2024-01-16T08:19:53.787Z,84.8
2024-01-16T08:20:53.903Z,84.8
2024-01-16T08:21:53.794Z,84.8
2024-01-16T08:22:53.788Z,84.8
2024-01-16T08:23:53.884Z,84.8
2024-01-16T08:24:53.824Z,84.8
2024-01-16T08:25:53.796Z,84.8
2024-01-16T08:26:53.882Z,84.8
2024-01-16T08:27:53.801Z,84.8
2024-01-16T08:28:53.831Z,84.8
2024-01-16T08:29:53.929Z,84.8
2024-01-16T08:30:53.978Z,84.8
2024-01-16T08:31:53.841Z,84.8
2024-01-16T08:32:53.890Z,84.8
2024-01-16T08:33:54.656Z,83.8
2024-01-16T08:34:53.871Z,83.8
2024-01-16T08:35:53.921Z,83.8
2024-01-16T08:36:53.789Z,83.8
2024-01-16T08:37:53.825Z,83.8
2024-01-16T08:38:53.931Z,83.8
2024-01-16T08:39:53.835Z,83.8
2024-01-16T08:40:53.834Z,83.8
2024-01-16T08:41:53.825Z,83.8
2024-01-16T08:42:57.465Z,83.8
2024-01-16T08:43:53.822Z,83.8
2024-01-16T08:44:53.974Z,83.8
2024-01-16T08:45:53.822Z,83.6
2024-01-16T08:46:53.807Z,83.6
2024-01-16T08:47:53.934Z,83.6
2024-01-16T08:48:53.839Z,83.6
2024-01-16T08:49:53.813Z,83.6
2024-01-16T08:50:53.936Z,83.6
2024-01-16T08:51:53.805Z,83.6
2024-01-16T08:52:53.788Z,83.6
2024-01-16T08:53:53.963Z,83.6
2024-01-16T08:54:53.802Z,83.6
2024-01-16T08:55:53.805Z,83.6
2024-01-16T08:56:53.898Z,83.6
2024-01-16T08:57:53.860Z,84
2024-01-16T08:58:53.809Z,84
2024-01-16T08:59:53.949Z,84
2024-01-16T09:00:53.813Z,84
2024-01-16T09:01:53.817Z,84
2024-01-16T09:02:53.928Z,84
2024-01-16T09:03:53.805Z,84
2024-01-16T09:04:53.972Z,84
2024-01-16T09:05:53.999Z,84
2024-01-16T09:07:53.846Z,84
2024-01-16T09:08:53.882Z,84
2024-01-16T09:09:53.837Z,84
2024-01-16T09:10:53.839Z,84.7
2024-01-16T09:11:53.875Z,84.7
2024-01-16T09:12:53.816Z,84.7
2024-01-16T09:13:53.833Z,84.7
2024-01-16T09:14:53.881Z,84.7
2024-01-16T09:15:53.872Z,84.7
2024-01-16T09:16:53.840Z,84.7
2024-01-16T09:17:53.952Z,84.7
2024-01-16T09:18:53.922Z,84.7
2024-01-16T09:19:53.838Z,85.5
2024-01-16T09:20:53.949Z,85.5
2024-01-16T09:21:53.839Z,85.5
2024-01-16T09:22:53.839Z,85.5
2024-01-16T09:23:53.915Z,85.5
2024-01-16T09:24:53.803Z,85.5
2024-01-16T09:25:53.819Z,85.5
2024-01-16T09:26:53.947Z,85.5
2024-01-16T09:27:53.824Z,85.5
2024-01-16T09:28:53.848Z,85.5
2024-01-16T09:29:53.949Z,85.5
2024-01-16T09:30:54.093Z,85.5
2024-01-16T09:31:53.840Z,85.5
2024-01-16T09:32:53.894Z,85.5
2024-01-16T09:33:53.970Z,85.5
2024-01-16T09:34:53.913Z,85.5
2024-01-16T09:35:53.991Z,85.5
2024-01-16T09:36:53.840Z,85.5
2024-01-16T09:37:53.860Z,85.5
2024-01-16T09:38:53.946Z,85.5
2024-01-16T09:39:53.850Z,85.5
2024-01-16T09:40:53.867Z,85.5
2024-01-16T09:41:53.979Z,85.5
2024-01-16T09:42:53.838Z,85.5
2024-01-16T09:43:53.846Z,85.5
2024-01-16T09:44:53.966Z,85.5
2024-01-16T09:45:53.860Z,85.5
2024-01-16T09:46:53.892Z,85.5
2024-01-16T09:47:54.204Z,85.5
2024-01-16T09:48:53.933Z,85.5
2024-01-16T09:49:53.886Z,85.5
2024-01-16T09:50:53.926Z,85.5
2024-01-16T09:51:53.880Z,85.5
2024-01-16T09:52:55.587Z,85.5
2024-01-16T09:53:53.933Z,85.5
2024-01-16T09:54:53.830Z,85.5
2024-01-16T09:55:53.807Z,85.5
2024-01-16T09:56:53.991Z,85.5
2024-01-16T09:57:53.830Z,85.5
2024-01-16T09:58:53.805Z,85.5
2024-01-16T09:59:53.868Z,85.5
2024-01-16T10:00:53.997Z,86.4
2024-01-16T10:01:53.843Z,86.4
2024-01-16T10:02:53.888Z,86.4
2024-01-16T10:03:54.173Z,86.4
2024-01-16T10:04:53.831Z,86.4
2024-01-16T10:05:53.947Z,85.8
2024-01-16T10:06:53.918Z,85.8
2024-01-16T10:07:53.816Z,85.8
2024-01-16T10:08:53.898Z,85.8
2024-01-16T10:09:53.899Z,85.2
2024-01-16T10:10:53.849Z,85.2
2024-01-16T10:11:53.955Z,85.2
2024-01-16T10:12:53.850Z,85.2
2024-01-16T10:13:53.835Z,85.2
2024-01-16T10:14:53.992Z,85.2
2024-01-16T10:15:53.833Z,85.2
2024-01-16T10:16:53.843Z,85.2
2024-01-16T10:17:53.958Z,85.2
2024-01-16T10:18:53.978Z,85.2
2024-01-16T10:19:54.052Z,85.2
2024-01-16T10:20:53.899Z,85.2
2024-01-16T10:21:53.855Z,85.2
2024-01-16T10:22:53.850Z,85.2
2024-01-16T10:23:53.917Z,85.2
2024-01-16T10:24:53.837Z,85.2
2024-01-16T10:25:53.823Z,85.2
2024-01-16T10:26:53.946Z,85.2
2024-01-16T10:27:53.846Z,85.2
2024-01-16T10:28:53.847Z,85.2
2024-01-16T10:29:53.922Z,85.2
2024-01-16T10:30:54.043Z,85.2
2024-01-16T10:31:53.953Z,85.2
2024-01-16T10:32:53.992Z,85.2
2024-01-16T10:33:54.060Z,85.2
2024-01-16T10:34:53.923Z,84.3
2024-01-16T10:35:53.896Z,84.3
2024-01-16T10:36:53.875Z,84.3
2024-01-16T10:37:53.859Z,84.3
2024-01-16T10:38:53.950Z,84.3
2024-01-16T10:39:53.891Z,84.3
2024-01-16T10:40:53.874Z,84.3
2024-01-16T10:41:53.996Z,84.3
2024-01-16T10:42:53.874Z,84.3
2024-01-16T10:43:53.870Z,84.3
2024-01-16T10:44:53.894Z,84.3
2024-01-16T10:45:53.886Z,84.3
2024-01-16T10:46:53.849Z,84.3
2024-01-16T10:47:53.929Z,84.3
2024-01-16T10:48:53.928Z,84.3
2024-01-16T10:49:53.987Z,84.3
2024-01-16T10:50:53.905Z,84.3
2024-01-16T10:51:53.850Z,84.3
2024-01-16T10:52:53.876Z,84.3
2024-01-16T10:53:53.966Z,84.3
2024-01-16T10:54:53.886Z,84.3
2024-01-16T10:55:54.085Z,84.3
2024-01-16T10:56:53.971Z,84.3
2024-01-16T10:57:53.902Z,84.3
2024-01-16T10:58:53.896Z,84.3
2024-01-16T10:59:53.922Z,84.3
2024-01-16T11:00:53.945Z,84.3
2024-01-16T11:01:53.900Z,84.3
2024-01-16T11:02:53.956Z,84.8
2024-01-16T11:03:53.916Z,84.8
2024-01-16T11:04:53.916Z,84.8
2024-01-16T11:05:54.109Z,84.8
2024-01-16T11:06:53.970Z,84.8
2024-01-16T11:07:53.870Z,84.8
2024-01-16T11:08:53.904Z,84.8
2024-01-16T11:09:53.905Z,84.8
2024-01-16T11:10:53.902Z,84.8
2024-01-16T11:11:54.025Z,84.8
2024-01-16T11:12:53.892Z,84.8
2024-01-16T11:13:53.891Z,84.8
2024-01-16T11:14:53.924Z,84.8
2024-01-16T11:15:53.921Z,84.8
2024-01-16T11:16:53.916Z,84.8
2024-01-16T11:17:53.986Z,84.8
2024-01-16T11:18:54.983Z,84.8
2024-01-16T11:21:04.506Z,84.8
2024-01-16T11:21:54.006Z,84.8
2024-01-16T11:22:53.897Z,84.8
2024-01-16T11:23:53.984Z,84.8
2024-01-16T11:24:53.877Z,84.8
2024-01-16T11:25:53.890Z,84.8
2024-01-16T11:26:53.924Z,84.8
2024-01-16T11:27:53.934Z,84.8
2024-01-16T11:28:53.894Z,84.8
2024-01-16T11:29:53.887Z,84.8
2024-01-16T11:30:53.918Z,84.8
2024-01-16T11:32:04.664Z,84.8
2024-01-16T11:32:54.036Z,84.8
2024-01-16T11:33:54.008Z,83
2024-01-16T11:34:53.910Z,83
2024-01-16T11:35:53.962Z,83
2024-01-16T11:36:53.888Z,83
2024-01-16T11:37:53.910Z,83
2024-01-16T11:38:53.917Z,83
2024-01-16T11:39:54.283Z,83
2024-01-16T11:40:53.891Z,83
2024-01-16T11:41:53.929Z,83
2024-01-16T11:42:53.872Z,83
2024-01-16T11:43:53.901Z,83
2024-01-16T11:44:53.951Z,83
2024-01-16T11:45:53.902Z,83
2024-01-16T11:46:53.878Z,83
2024-01-16T11:47:53.987Z,83.8
2024-01-16T11:48:53.985Z,83.8
2024-01-16T11:49:53.889Z,83.8
2024-01-16T11:50:53.990Z,83.8
2024-01-16T11:51:53.889Z,83.8
2024-01-16T11:52:53.891Z,83.8
2024-01-16T11:53:54.107Z,83.8
2024-01-16T11:54:53.892Z,83.8
2024-01-16T11:55:53.882Z,83.8
2024-01-16T11:56:53.919Z,83.8
2024-01-16T11:57:53.906Z,83.8
2024-01-16T11:58:53.902Z,83.6
2024-01-16T11:59:53.954Z,83.6
2024-01-16T12:00:53.944Z,83.6
2024-01-16T12:01:53.900Z,83.6
2024-01-16T12:02:54.037Z,83.6
2024-01-16T12:03:53.900Z,83.6
2024-01-16T12:04:53.896Z,83.6
2024-01-16T12:05:54.068Z,83.6
2024-01-16T12:06:54.075Z,83.6
2024-01-16T12:07:54.015Z,83.6
2024-01-16T12:08:53.970Z,83.6
2024-01-16T12:09:53.896Z,83.6
2024-01-16T12:10:53.930Z,83.6
2024-01-16T12:11:53.949Z,83.6
2024-01-16T12:12:53.900Z,83.6
2024-01-16T12:13:53.892Z,83.6
2024-01-16T12:14:53.976Z,83.6
2024-01-16T12:15:53.932Z,83.6
2024-01-16T12:16:53.892Z,83.6
2024-01-16T12:17:54.056Z,83.6
2024-01-16T12:18:54.008Z,83.6
2024-01-16T12:19:54.008Z,83.6
2024-01-16T12:20:53.957Z,83.6
2024-01-16T12:21:53.935Z,83.6
2024-01-16T12:22:53.929Z,83.6
2024-01-16T12:24:04.588Z,83.6
2024-01-16T12:24:53.925Z,83.6
2024-01-16T12:26:01.981Z,83.6
2024-01-16T12:26:53.988Z,83.6
2024-01-16T12:27:53.901Z,83.6
2024-01-16T12:28:56.297Z,83.6
2024-01-16T12:29:53.959Z,83.6
2024-01-16T12:30:53.992Z,83.6
2024-01-16T12:31:53.939Z,83.6
2024-01-16T12:33:02.578Z,83.6
2024-01-16T12:34:01.560Z,83.6
2024-01-16T12:34:54.039Z,83.6
2024-01-16T12:35:53.992Z,83.6
2024-01-16T12:36:53.896Z,83.6
2024-01-16T12:37:53.949Z,83.6
2024-01-16T12:38:54.051Z,83.6
2024-01-16T12:39:53.941Z,83.6
2024-01-16T12:40:53.942Z,83.6
2024-01-16T12:41:53.935Z,83.6
2024-01-16T12:42:53.940Z,83.6
2024-01-16T12:44:00.960Z,83.6
2024-01-16T12:44:53.956Z,83.6
2024-01-16T12:45:53.929Z,83.6
2024-01-16T12:46:53.907Z,83.6
2024-01-16T12:47:54.781Z,83.6
2024-01-16T12:49:00.619Z,83.6
2024-01-16T12:49:53.953Z,82.9
2024-01-16T12:50:53.980Z,82.9
2024-01-16T12:51:53.927Z,82.9
2024-01-16T12:52:53.931Z,82.9
2024-01-16T12:53:53.999Z,82.9
2024-01-16T12:54:53.913Z,82.9
2024-01-16T12:55:53.969Z,82.9
2024-01-16T12:56:53.958Z,82.9
2024-01-16T12:57:53.919Z,82.9
2024-01-16T12:58:53.925Z,82.9
2024-01-16T12:59:54.158Z,82.9
2024-01-16T13:00:53.944Z,82.9
2024-01-16T13:01:53.957Z,82.9
2024-01-16T13:02:54.165Z,82.9
2024-01-16T13:03:54.013Z,82.9
2024-01-16T13:04:53.915Z,82.9
2024-01-16T13:05:54.124Z,82.9
2024-01-16T13:06:54.073Z,82.9
2024-01-16T13:07:53.924Z,82.9
2024-01-16T13:08:53.936Z,82.9
2024-01-16T13:09:53.938Z,82.9
2024-01-16T13:10:53.931Z,82.9
2024-01-16T13:11:54.361Z,82.9
2024-01-16T13:12:53.923Z,82.9
2024-01-16T13:13:53.924Z,82.9
2024-01-16T13:14:54.095Z,82.9
2024-01-16T13:15:53.920Z,82.9
2024-01-16T13:16:53.917Z,82.9
2024-01-16T13:17:54.029Z,82.9
2024-01-16T13:18:53.944Z,82.9
2024-01-16T13:19:53.929Z,82.9
2024-01-16T13:20:54.021Z,82.9
2024-01-16T13:21:53.912Z,82.9
2024-01-16T13:22:53.918Z,82.9
2024-01-16T13:23:54.024Z,82.9
2024-01-16T13:24:58.297Z,82.9
2024-01-16T13:25:53.937Z,82.9
2024-01-16T13:26:54.158Z,83
2024-01-16T13:27:53.926Z,83